Estación Meteorológica Peña el Pijo (Robertgarden) [ 12/14/19 08:41:45 CET ]

Fecha Hora Presion(HPa) Temp (°C) Humedad % Rocio (°C) Viento ( m/s) Direccion Lluvia 1Hora(mm) Lluvia 24H(mm) LLuvia Total(mm)
2019-Aug-09 01:01:37 1011.400 16.5 51 6.4         363.34
2019-Aug-09 02:01:35 1011.500 15.3 56 6.5         363.34
2019-Aug-09 03:01:42 1011.400 14.3 58 6.1         363.34
2019-Aug-09 04:01:42 1011.500 13.4 61 6.0         363.34
2019-Aug-09 05:01:43 1011.500 12.7 63 5.8         363.34
2019-Aug-09 06:01:39 1011.400 12.3 66 6.1         363.34
2019-Aug-09 07:01:21 1011.100 13.2 65 6.7         363.34
2019-Aug-09 08:01:37 1011.200 12.1 69 6.6         363.34
2019-Aug-09 09:01:24 1011.400 19.8 56 10.7         363.34
2019-Aug-09 10:01:36 1011.100 27.1 39 11.9         363.34
2019-Aug-09 11:01:43 1011.100 31.0 19 4.5         363.34
2019-Aug-09 12:01:41 1011.300 33.1 14 1.4         363.34
2019-Aug-09 13:01:47 1011.400 35.2 13 2.0         363.34
2019-Aug-09 14:01:51 1011.400 36.5 10 0.0         363.34
2019-Aug-09 15:01:54 1010.900 37.4 10 0.7         363.34
2019-Aug-09 16:02:07 1011.200 37.8 10 1.0 3.0 E     363.34
2019-Aug-09 17:01:34 1011.000 36.9 - - 1.6 NE     363.34
2019-Aug-09 18:01:47 1010.800 35.8 10 -0.5         363.34
2019-Aug-09 19:02:01 1010.600 34.8 14 2.7         363.34
2019-Aug-09 20:02:06 1011.000 32.3 16 2.7         363.34
2019-Aug-09 21:01:47 1011.800 28.8 21 4.2         363.34
2019-Aug-09 22:01:45 1012.400 23.4 32 5.7         363.34
2019-Aug-09 23:01:54 1013.100 21.4 36 5.6         363.34

Temperatura Máxima:37°    Temperatura Mínima:12°
Presión Máxima:1013.100 Hpa    Presión Mínima:1010.600 Hpa


Volver